Impacts METAR Board INFO
IDs:

KCLE - Cleveland/Hopkins In, OH, US

Updated at: 0241 UTC 15 Dec 2017
Potential Impact None Slight Moderate High
Time14/14Z 14/15Z 14/16Z 14/17Z 14/18Z 14/19Z 14/20Z 14/21Z 14/22Z 14/23Z 15/00Z 15/01Z 15/02Z
VIS10 9 10 10 10 10 10 10 10 10 10 10 10
CIG35 21 33 33 32 26 24 25 28 31 -- 250 250
CoverBKNOVCBKNBKNBKNBKNBKNOVCBKNOVCSCTBKNBKN
FltCatVFRMVFRVFRVFRVFRMVFRMVFRMVFRMVFRVFRVFRVFRVFR
WX---SN----------------------
WDir320320340270280290270300260260250240230
WSpd7 10 9 6 9 8 9 9 8 8 7 5 5
WGst-- -- -- -- -- 15 -- -- -- -- -- -- --
Raw hourly METARs
KCLE 141351Z 32007KT 10SM SCT027 BKN035 M04/M10 A2994 RMK AO2 SLP148 T10441100
KCLE 141451Z 32010KT 9SM -SN BKN021 OVC036 M04/M08 A2998 RMK AO2 SNB26 SLP162 P0000 60000 T10441083 51044
KCLE 141551Z 34009KT 10SM SCT025 BKN033 M03/M10 A3001 RMK AO2 SNE30 SLP174 P0000 T10331100
KCLE 141651Z 27006KT 10SM SCT029 BKN033 M03/M09 A3003 RMK AO2 SLP179 T10281094
KCLE 141751Z 28009KT 10SM FEW029 BKN032 M03/M09 A3001 RMK AO2 SLP174 4/005 933008 60000 T10331094 11028 21044 50013
KCLE 141851Z 29008G15KT 10SM BKN026 BKN250 M03/M09 A3001 RMK AO2 SLP173 T10331094
KCLE 141951Z 27009KT 10SM BKN024 BKN250 M04/M09 A3002 RMK AO2 SLP176 T10391094
KCLE 142051Z 30009KT 10SM BKN025 OVC029 M04/M09 A3004 RMK AO2 SLP182 T10441094 53007
KCLE 142151Z 26008KT 10SM BKN028 BKN033 BKN250 M05/M10 A3005 RMK AO2 SLP186 T10501100
KCLE 142251Z 26008KT 10SM FEW023 OVC031 M06/M10 A3008 RMK AO2 SLP196 T10611100
KCLE 142351Z 25007KT 10SM FEW031 SCT250 M09/M12 A3010 RMK AO2 SLP206 4/004 T10891117 11028 21089 53021
KCLE 150051Z 24005KT 10SM BKN250 M09/M12 A3010 RMK AO2 SLP205 T10941117
KCLE 150151Z 23005KT 10SM BKN250 M10/M12 A3010 RMK AO2 SLP206 T11001122